Tiempo atmosférico en la estación meteorológica de Cabo Peñas, Asturias (100 m.)

Fecha
DESCASC
Temp. máxima en grados centígrados (hora)
DESCASC
Temp. mínima en grados centígrados (hora)
DESCASC
Temp. media en grados centígrados
DESCASC
Racha de viento máxima en m/sg (hora)
DESCASC
Velocidad máxima media en intervalos de 10 minutos(hora)
DESCASC
Precipitaciones diarias en mm
DESCASC
Precipitaciones de 00:00 a 06:00 en mm
DESCASC
Precipitaciones de 06:00 a 12:00 en mm
DESCASC
Precipitaciones de 12:00 a 18:00 en mm
DESCASC
Precipitaciones de 18:00 a 24:00 en mm
DESCASC
23-11-2017 20.1 (00:30) 13.5 (18:30) 16.8 14.72 (00:20) 10 (00:10) 0 0 0 0 0
22-11-2017 24 (13:30) 13.5 (00:20) 18.8 18.33 (22:00) 12.22 (22:00) 0 0 0 0 0
21-11-2017 20.4 (12:20) 10.1 (05:40) 15.3 8.89 (03:30) 5.83 (19:20) 0 0 0 0 0
20-11-2017 -- (--) -- (--) -- -- (--) -- (--) 0 0 0 0 0
19-11-2017 15.5 (13:50) 8.3 (00:00) 11.9 12.78 (17:30) 8.61 (17:30) 0 0 0 0 0
18-11-2017 15.6 (13:30) 9.7 (00:00) 12.7 11.94 (17:10) 7.5 (20:20) 0 0 0 0 0
17-11-2017 14.8 (14:10) 10.1 (00:00) 12.5 7.22 (19:40) 4.17 (20:00) 0 0 0 0 0
16-11-2017 -- (--) -- (--) -- -- (--) -- (--) -- -- -- -- --
15-11-2017 -- (--) -- (--) -- -- (--) -- (--) -- -- -- -- --
14-11-2017 13.9 (13:50) 7.7 (00:00) 10.8 17.5 (18:00) 10.83 (18:40) -- -- -- -- --
13-11-2017 -- (--) -- (--) -- 10.28 (11:10) 5.28 (23:30) -- -- -- -- --
12-11-2017 -- (--) -- (--) -- 14.44 (08:00) 8.89 (08:00) -- -- -- -- --
11-11-2017 -- (--) -- (--) -- 11.67 (20:30) 6.39 (11:10) -- -- -- -- --
10-11-2017 -- (--) -- (--) -- 13.06 (11:40) 6.67 (21:40) -- -- -- -- --
09-11-2017 12.7 (20:50) 7.1 (00:00) 9.9 7.22 (21:20) 5 (10:10) -- -- -- -- --
08-11-2017 13.1 (04:30) 7.6 (00:00) 10.4 13.89 (00:10) 7.78 (12:30) -- -- -- -- --
07-11-2017 14.1 (18:40) 7.1 (00:00) 10.6 18.06 (23:59) 7.78 (16:30) -- -- -- -- --
06-11-2017 14.9 (15:20) 9.8 (00:00) 12.3 7.78 (05:30) 4.17 (08:10) 0.3 0.3 0 0 0
05-11-2017 -- (--) -- (--) -- 17.5 (08:10) 8.89 (08:10) 9 4.6 0.5 1.7 2.2
04-11-2017 16 (12:10) 12.4 (00:00) 14.2 16.11 (17:30) 7.5 (17:00) 4.6 0 0 3.7 0.9
03-11-2017 -- (--) -- (--) -- 5.83 (07:40) 4.17 (20:10) 1 0.1 0.6 0.3 0
02-11-2017 -- (--) -- (--) -- 9.72 (16:10) 5.56 (16:00) 2 0 0 0.1 1.9
01-11-2017 20.5 (13:40) 11 (00:00) 15.8 6.39 (08:00) 5 (08:10) 0 0 0 0 0
31-10-2017 15.3 (13:50) 11.3 (00:00) 13.3 13.33 (13:20) 8.89 (13:00) 0 0 0 0 0
30-10-2017 17 (14:50) 12.6 (00:00) 14.8 15.56 (16:20) 9.17 (20:40) 2.9 2.1 0.7 0.1 0
29-10-2017 18.5 (11:10) 13.5 (00:00) 16 6.94 (20:40) 4.72 (01:30) 0.1 0 0 0 0.1
28-10-2017 18.6 (15:30) 15 (00:00) 16.8 9.72 (15:50) 6.11 (16:30) 0 0 0 0 0
27-10-2017 19.6 (13:30) 14.4 (00:00) 17 9.44 (16:40) 6.11 (01:50) 0 0 0 0 0
26-10-2017 20.6 (11:30) 13.6 (00:00) 17.1 9.44 (05:40) 7.22 (05:40) 0 0 0 0 0

Gráficas

Temp. máximas Temp. mínimas Temp. medias Precipitaciones Rachas de viento máximas Velocidades máximas media en intervalos de 10 minutos

Datos horarios

Fecha y hora oficial Temperatura (ºC) Velocidad del viento (km/h) Dirección del viento Racha (km/h) Dirección de racha Precipitación (mm) Presión (hPa) Tendencia (hPa) Humedad (%)
2017-11-24 23:00:00 11.6 5 Sur 22 Sur 6.2 -- -- 94
2017-11-24 22:00:00 12.4 6 Sudoeste 13 Oeste 2.3 -- -- 94
2017-11-24 21:00:00 12.3 6 Sudoeste 9 Sudoeste 0.8 -- -- 92
2017-11-24 20:00:00 11.9 4 Sudoeste 5 Sudoeste 0.3 -- -- 91
2017-11-24 19:00:00 12.5 0 Calma 10 Sudoeste 0.3 -- -- 91
2017-11-24 18:00:00 12.1 9 Sudoeste 15 Sudoeste 0.2 -- -- 91
2017-11-24 17:00:00 12.6 9 Sudoeste 23 Oeste 0.8 -- -- 88
2017-11-24 16:00:00 12.7 11 Oeste 24 Oeste 0 -- -- 83
2017-11-24 15:00:00 14.1 12 Oeste 23 Oeste 0.3 -- -- 86
2017-11-24 14:00:00 14.1 13 Sudoeste 21 Sudoeste 0 -- -- 90
2017-11-24 13:00:00 13.4 9 Oeste 19 Sudoeste 0.1 -- -- 91
2017-11-24 12:00:00 13.7 10 Sudoeste 15 Sudoeste 0 -- -- 91
2017-11-24 11:00:00 13.1 6 Sudoeste 9 Sudoeste 0 -- -- 91
2017-11-24 10:00:00 12.4 4 Sur 17 Sudoeste 0.3 -- -- 92
2017-11-24 09:00:00 11.8 7 Sur 25 Sudoeste 1.2 -- -- 92
2017-11-24 08:00:00 12.4 19 Sudoeste 27 Oeste 1.1 -- -- 93
2017-11-24 07:00:00 13.3 9 Noroeste 27 Noroeste 0.9 -- -- 91
2017-11-24 06:00:00 13.2 17 Oeste 25 Oeste 0.2 -- -- 91
2017-11-24 05:00:00 14.1 14 Oeste 53 Oeste 0.9 -- -- 91
2017-11-24 04:00:00 14.1 14 Oeste 34 Noroeste 0 -- -- 89
2017-11-24 03:00:00 14 14 Noroeste 31 Noroeste 0.3 -- -- 92
2017-11-24 02:00:00 14.9 11 Noroeste 22 Noroeste 0.5 -- -- 92
2017-11-24 01:00:00 14.6 7 Oeste 27 Noroeste 0 -- -- 92
2017-11-24 00:00:00 14.5 16 Noroeste 25 Noroeste 0 -- -- 92
2017-11-23 23:00:00 15.3 15 Noroeste 21 Noroeste 0 -- -- 91
2017-11-23 22:00:00 15.1 9 Oeste 13 Oeste 0 -- -- 90
2017-11-23 21:00:00 15.6 3 Sudeste 18 Sudeste 0 -- -- 90
2017-11-23 20:00:00 14 13 Sudeste 18 Sudeste 0 -- -- 92
2017-11-23 19:00:00 14.6 14 Sudeste 22 Este 0 -- -- 92
2017-11-23 18:00:00 14.8 11 Este 19 Este 0 -- -- 92
2017-11-23 17:00:00 16.2 16 Sudeste 28 Sudeste 0 -- -- 90
2017-11-23 16:00:00 16 19 Este 31 Sudeste 0 -- -- 90
2017-11-23 15:00:00 16.3 25 Sudeste 31 Sudeste 0 -- -- 87
2017-11-23 14:00:00 18.7 18 Este 24 Sudeste 0 -- -- 83
2017-11-23 13:00:00 16.8 13 Este 18 Este 0 -- -- 87
2017-11-23 12:00:00 17.9 12 Sudeste 16 Este 0 -- -- 79
2017-11-23 11:00:00 16.5 7 Oeste 13 Sudoeste 0 -- -- 80
2017-11-23 10:00:00 17.7 8 Sudoeste 21 Sudoeste 0 -- -- 82
2017-11-23 09:00:00 15.4 12 Sudoeste 30 Oeste 0 -- -- 89
2017-11-23 08:00:00 16 13 Oeste 28 Oeste 0 -- -- 81
2017-11-23 07:00:00 16.5 14 Sudoeste 22 Sudoeste 0 -- -- 79
2017-11-23 06:00:00 15.9 11 Oeste 19 Oeste 0 -- -- 85
2017-11-23 05:00:00 15.8 13 Sudoeste 17 Oeste 0 -- -- 89
2017-11-23 04:00:00 15.7 10 Oeste 28 Oeste 0 -- -- 88
2017-11-23 03:00:00 16.3 12 Oeste 24 Oeste 0 -- -- 81
2017-11-23 02:00:00 17 12 Oeste 34 Sudoeste 0 -- -- 76
2017-11-23 01:00:00 17.6 24 Sudoeste 53 Sudoeste 0 -- -- 55
2017-11-23 00:00:00 19.6 33 Sudoeste 48 Oeste 0 -- -- 45
2017-11-22 23:00:00 18.5 19 Oeste 59 Sudoeste 0 -- -- 45
2017-11-22 22:00:00 21.2 44 Sudoeste 66 Sudoeste 0 -- -- 34
2017-11-22 21:00:00 19.3 13 Sudoeste 29 Sudoeste 0 -- -- 40
2017-11-22 20:00:00 19.3 5 Sur 24 Sudeste 0 -- -- 40
2017-11-22 19:00:00 19.6 8 Sudeste 42 Sudoeste 0 -- -- 39
2017-11-22 18:00:00 20.3 10 Sur 40 Sudoeste 0 -- -- 38
2017-11-22 17:00:00 21.4 9 Sur 55 Sudoeste 0 -- -- 36
2017-11-22 16:00:00 21.6 23 Sudoeste 40 Sudoeste 0 -- -- 36
2017-11-22 15:00:00 21.3 22 Sudoeste 54 Oeste 0 -- -- 35
2017-11-22 14:00:00 22.1 24 Sudoeste 41 Sudoeste 0 -- -- 34
2017-11-22 13:00:00 23.2 10 Sur 32 Sur 0 -- -- 34
2017-11-22 12:00:00 22.1 8 Sur 26 Sudeste 0 -- -- 34
2017-11-22 11:00:00 19.5 5 Este 14 Sur 0 -- -- 39
2017-11-22 10:00:00 18.6 4 Sur 17 Sudeste 0 -- -- 36
2017-11-22 09:00:00 17.9 5 Sur 16 Sur 0 -- -- 36
2017-11-22 08:00:00 16.8 12 Sudoeste 15 Sudoeste 0 -- -- 36
2017-11-22 07:00:00 17.6 12 Sudoeste 17 Sudoeste 0 -- -- 36
2017-11-22 06:00:00 17.6 10 Sur 19 Sudoeste 0 -- -- 36
2017-11-22 05:00:00 17 11 Sur 24 Sudoeste 0 -- -- 36
2017-11-22 04:00:00 16.3 15 Sur 29 Sur 0 -- -- 38
2017-11-22 03:00:00 16.4 7 Sur 24 Sudeste 0 -- -- 38
2017-11-22 02:00:00 15.7 8 Sur 24 Sudoeste 0 -- -- 38
2017-11-22 01:00:00 16 5 Sur 25 Sudeste 0 -- -- 39
2017-11-22 00:00:00 14.3 17 Sudeste 22 Sudeste 0 -- -- 45
2017-11-21 23:00:00 14.7 9 Sudeste 23 Sudeste 0 -- -- 50
2017-11-21 22:00:00 16.1 4 Sudeste 20 Sudeste 0 -- -- 47
2017-11-21 21:00:00 13.9 14 Sudeste 23 Este 0 -- -- 76
2017-11-21 20:00:00 13.7 19 Sudeste 25 Sudeste 0 -- -- 87
2017-11-21 19:00:00 13.9 19 Sudeste 24 Sudeste 0 -- -- 85
2017-11-21 18:00:00 14.3 17 Sudeste 21 Sudeste 0 -- -- 85
2017-11-21 17:00:00 14.7 14 Sudeste 20 Sudeste 0 -- -- 85
2017-11-21 16:00:00 15.8 17 Este 22 Este 0 -- -- 60
2017-11-21 15:00:00 17 11 Sudeste 16 Sudeste 0 -- -- 69
2017-11-21 14:00:00 16.8 9 Sudeste 12 Sudeste 0 -- -- 58
2017-11-21 13:00:00 18.6 3 Sudeste 11 Sudeste 0 -- -- 48
2017-11-21 12:00:00 19 3 Sudeste 14 Sudeste 0 -- -- 41
2017-11-21 11:00:00 17.2 3 Sudeste 10 Sudeste 0 -- -- 43
2017-11-21 10:00:00 16 4 Sur 10 Sudeste 0 -- -- 47
2017-11-21 09:00:00 14 4 Sur 10 Sudoeste 0 -- -- 48
2017-11-21 08:00:00 13.3 8 Oeste 13 Oeste 0 -- -- 51
2017-11-21 07:00:00 11.4 11 Oeste 21 Sudoeste 0 -- -- 54
2017-11-21 06:00:00 11.8 17 Sudoeste 18 Sudoeste 0 -- -- 57
2017-11-21 05:00:00 13.9 4 Oeste 11 Sudoeste 0 -- -- 51
2017-11-21 04:00:00 14.8 6 Sudoeste 32 Sudoeste 0 -- -- 52
2017-11-21 03:00:00 13.4 13 Sudoeste 21 Sudoeste 0 -- -- 56
2017-11-21 02:00:00 13.5 6 Sur 15 Sudoeste 0 -- -- 57
2017-11-21 01:00:00 14.1 9 Sur 13 Sur 0 -- -- 54
2017-11-21 00:00:00 14.7 4 Sur 8 Sudoeste 0 -- -- 47
2017-11-20 23:00:00 14.6 4 Sur 9 Sudoeste 0 -- -- 45
2017-11-20 22:00:00 14.9 5 Sudoeste 8 Sudoeste 0 -- -- 45
2017-11-20 21:00:00 15.4 7 Sudoeste 8 Sudoeste 0 -- -- 44
2017-11-20 20:00:00 14.8 7 Oeste 10 Oeste 0 -- -- 47
2017-11-20 19:00:00 14.4 9 Sudoeste 12 Oeste 0 -- -- 47
2017-11-20 18:00:00 14.6 10 Sudoeste 12 Sudoeste 0 -- -- 43
2017-11-20 17:00:00 15.1 9 Sudoeste 10 Oeste 0 -- -- 61
2017-11-20 16:00:00 15.2 5 Sudoeste 10 Sudoeste 0 -- -- 76
2017-11-20 15:00:00 16.2 4 Noroeste 6 Oeste 0 -- -- 48
2017-11-20 14:00:00 16.3 3 Norte 5 Noroeste 0 -- -- 45
2017-11-20 13:00:00 -- -- -- -- -- -- -- -- --
2017-11-20 12:00:00 -- 4 Este -- -- -- -- -- --
2017-11-20 11:00:00 14.5 0 Calma 5 Sudeste 0 -- -- 52
2017-11-20 10:00:00 13.4 2 Sudeste 4 Sudeste 0 -- -- 50
2017-11-20 09:00:00 11.2 4 Sudeste 9 Sudoeste 0 -- -- 60
2017-11-20 08:00:00 9.9 9 Sudoeste 12 Sudoeste 0 -- -- 63
2017-11-20 07:00:00 9.8 5 Sudeste 14 Sudeste 0 -- -- 64
2017-11-20 06:00:00 10.9 8 Sudeste 19 Sudeste 0 -- -- 61
2017-11-20 05:00:00 11.3 18 Sudeste 27 Sudeste 0 -- -- 68
2017-11-20 04:00:00 9.9 22 Sudeste 27 Sudeste 0 -- -- 83
2017-11-20 03:00:00 11.6 18 Sudeste 24 Sudeste 0 -- -- 81
2017-11-20 02:00:00 10 19 Sudeste 27 Sudeste 0 -- -- 76
2017-11-20 01:00:00 10.9 14 Sudeste 31 Este 0 -- -- 85
2017-11-20 00:00:00 11.9 24 Sudeste 35 Sudeste 0 -- -- 89
2017-11-19 23:00:00 11.8 22 Sudeste 30 Sudeste 0 -- -- 88
2017-11-19 22:00:00 12.7 15 Este 31 Este 0 -- -- 87
2017-11-19 21:00:00 11.8 17 Este 33 Sudeste 0 -- -- 86
2017-11-19 20:00:00 13.3 24 Sudeste 39 Sudeste 0 -- -- 83
2017-11-19 19:00:00 11.6 27 Sudeste 46 Este 0 -- -- 87
2017-11-19 18:00:00 12.4 30 Este 46 Este 0 -- -- 86
2017-11-19 17:00:00 13.3 28 Este 41 Este 0 -- -- 87
2017-11-19 16:00:00 13.5 28 Este 41 Este 0 -- -- 85
2017-11-19 15:00:00 13.7 30 Este 44 Este 0 -- -- 84
2017-11-19 14:00:00 13.7 27 Este 42 Este 0 -- -- 82
2017-11-19 13:00:00 -- -- -- -- -- -- -- -- --
2017-11-19 12:00:00 -- -- -- -- -- -- -- -- --
2017-11-19 11:00:00 -- -- -- -- -- -- -- -- --
2017-11-19 10:00:00 -- -- -- -- -- -- -- -- --
2017-11-19 09:00:00 -- -- -- -- -- -- -- -- --
2017-11-19 08:00:00 -- -- -- -- -- -- -- -- --
2017-11-19 07:00:00 -- -- -- -- -- -- -- -- --
2017-11-19 06:00:00 -- -- -- -- -- -- -- -- --
2017-11-19 05:00:00 -- -- -- -- -- -- -- -- --
2017-11-19 04:00:00 -- -- -- -- -- -- -- -- --
2017-11-19 03:00:00 -- -- -- -- -- -- -- -- --
2017-11-19 02:00:00 -- -- -- -- -- -- -- -- --
2017-11-19 01:00:00 -- -- -- -- -- -- -- -- --
2017-11-19 00:00:00 -- -- -- -- -- -- -- -- --
2017-11-18 23:00:00 -- -- -- -- -- -- -- -- --
2017-11-18 22:00:00 -- -- -- -- -- -- -- -- --
2017-11-18 21:00:00 -- -- -- -- -- -- -- -- --
2017-11-18 20:00:00 -- -- -- -- -- -- -- -- --
2017-11-18 19:00:00 -- -- -- -- -- -- -- -- --
2017-11-18 18:00:00 -- -- -- -- -- -- -- -- --
2017-11-18 17:00:00 -- -- -- -- -- -- -- -- --
2017-11-18 16:00:00 -- -- -- -- -- -- -- -- --
2017-11-18 15:00:00 -- -- -- -- -- -- -- -- --
2017-11-18 14:00:00 -- -- -- -- -- -- -- -- --
2017-11-18 13:00:00 -- -- -- -- -- -- -- -- --
2017-11-18 12:00:00 -- -- -- -- -- -- -- -- --
2017-11-18 11:00:00 -- -- -- -- -- -- -- -- --
2017-11-18 10:00:00 -- -- -- -- -- -- -- -- --
2017-11-18 09:00:00 -- -- -- -- -- -- -- -- --
2017-11-18 08:00:00 -- -- -- -- -- -- -- -- --
2017-11-18 07:00:00 -- -- -- -- -- -- -- -- --
2017-11-18 06:00:00 -- -- -- -- -- -- -- -- --
2017-11-18 05:00:00 -- -- -- -- -- -- -- -- --
2017-11-18 04:00:00 -- -- -- -- -- -- -- -- --
2017-11-18 03:00:00 -- -- -- -- -- -- -- -- --
2017-11-18 02:00:00 -- -- -- -- -- -- -- -- --
2017-11-18 01:00:00 -- -- -- -- -- -- -- -- --
2017-11-18 00:00:00 -- -- -- -- -- -- -- -- --
2017-11-17 23:00:00 -- -- -- -- -- -- -- -- --
2017-11-17 22:00:00 -- -- -- -- -- -- -- -- --
2017-11-17 21:00:00 -- -- -- -- -- -- -- -- --
2017-11-17 20:00:00 -- -- -- -- -- -- -- -- --
2017-11-17 19:00:00 -- -- -- -- -- -- -- -- --
2017-11-17 18:00:00 -- -- -- -- -- -- -- -- --
2017-11-17 17:00:00 -- -- -- -- -- -- -- -- --
2017-11-17 16:00:00 -- -- -- -- -- -- -- -- --
2017-11-17 15:00:00 -- -- -- -- -- -- -- -- --
2017-11-17 14:00:00 -- -- -- -- -- -- -- -- --
2017-11-17 13:00:00 -- -- -- -- -- -- -- -- --
2017-11-17 12:00:00 -- -- -- -- -- -- -- -- --
2017-11-17 11:00:00 -- -- -- -- -- -- -- -- --
2017-11-17 10:00:00 -- -- -- -- -- -- -- -- --
2017-11-17 09:00:00 -- -- -- -- -- -- -- -- --
2017-11-17 08:00:00 -- -- -- -- -- -- -- -- --
2017-11-17 07:00:00 -- -- -- -- -- -- -- -- --
2017-11-17 06:00:00 -- -- -- -- -- -- -- -- --
2017-11-17 05:00:00 -- -- -- -- -- -- -- -- --
2017-11-17 04:00:00 -- -- -- -- -- -- -- -- --
2017-11-17 03:00:00 -- -- -- -- -- -- -- -- --
2017-11-17 02:00:00 -- -- -- -- -- -- -- -- --
2017-11-17 01:00:00 -- -- -- -- -- -- -- -- --
2017-11-17 00:00:00 -- -- -- -- -- -- -- -- --
2017-11-16 23:00:00 -- -- -- -- -- -- -- -- --
2017-11-16 22:00:00 -- -- -- -- -- -- -- -- --
2017-11-16 21:00:00 -- -- -- -- -- -- -- -- --
2017-11-16 20:00:00 -- -- -- -- -- -- -- -- --
2017-11-16 19:00:00 -- -- -- -- -- -- -- -- --
2017-11-16 18:00:00 -- -- -- -- -- -- -- -- --
2017-11-16 17:00:00 -- -- -- -- -- -- -- -- --
2017-11-16 16:00:00 -- -- -- -- -- -- -- -- --
2017-11-16 15:00:00 -- -- -- -- -- -- -- -- --
2017-11-16 14:00:00 -- -- -- -- -- -- -- -- --
2017-11-16 13:00:00 -- -- -- -- -- -- -- -- --
2017-11-16 12:00:00 -- -- -- -- -- -- -- -- --
2017-11-16 11:00:00 -- -- -- -- -- -- -- -- --
2017-11-16 10:00:00 -- -- -- -- -- -- -- -- --
2017-11-16 09:00:00 -- -- -- -- -- -- -- -- --
2017-11-16 08:00:00 -- -- -- -- -- -- -- -- --
2017-11-16 07:00:00 -- -- -- -- -- -- -- -- --
2017-11-16 06:00:00 -- -- -- -- -- -- -- -- --
2017-11-16 05:00:00 -- -- -- -- -- -- -- -- --
2017-11-16 04:00:00 -- -- -- -- -- -- -- -- --
2017-11-16 03:00:00 -- -- -- -- -- -- -- -- --
2017-11-16 02:00:00 -- -- -- -- -- -- -- -- --
2017-11-16 01:00:00 -- -- -- -- -- -- -- -- --
2017-11-16 00:00:00 -- -- -- -- -- -- -- -- --
2017-11-15 23:00:00 -- -- -- -- -- -- -- -- --
2017-11-15 22:00:00 -- -- -- -- -- -- -- -- --
2017-11-15 21:00:00 -- -- -- -- -- -- -- -- --
2017-11-15 20:00:00 -- -- -- -- -- -- -- -- --
2017-11-15 19:00:00 -- -- -- -- -- -- -- -- --
2017-11-15 18:00:00 -- -- -- -- -- -- -- -- --
2017-11-15 17:00:00 -- -- -- -- -- -- -- -- --
2017-11-15 16:00:00 -- -- -- -- -- -- -- -- --
2017-11-15 15:00:00 -- -- -- -- -- -- -- -- --
2017-11-15 14:00:00 -- -- -- -- -- -- -- -- --
2017-11-15 13:00:00 -- -- -- -- -- -- -- -- --
2017-11-15 12:00:00 -- -- -- -- -- -- -- -- --
2017-11-15 11:00:00 11.9 25 Sudeste 37 Sudeste -- -- -- 72
2017-11-15 10:00:00 11.2 27 Sudeste 40 Este -- -- -- 72
2017-11-15 09:00:00 10.7 28 Este 49 Este -- -- -- 76
2017-11-15 08:00:00 11.1 35 Este 53 Este -- -- -- 77
2017-11-15 07:00:00 10.5 35 Este 50 Este -- -- -- 82
2017-11-15 06:00:00 10.2 33 Este 48 Sudeste -- -- -- 84
2017-11-15 05:00:00 10.5 34 Sudeste 49 Este -- -- -- 84
2017-11-15 04:00:00 10.2 34 Este 53 Este -- -- -- 82
2017-11-15 03:00:00 9.9 35 Sudeste 55 Sudeste -- -- -- 80
2017-11-15 02:00:00 9.8 39 Este 56 Sudeste -- -- -- 81
2017-11-15 01:00:00 9.9 36 Este 54 Sudeste -- -- -- 82
2017-11-15 00:00:00 10.5 34 Este 54 Este -- -- -- 82
2017-11-14 23:00:00 9.9 35 Este 54 Este -- -- -- 82
2017-11-14 22:00:00 10.5 36 Este 54 Este -- -- -- 81
2017-11-14 21:00:00 10.6 32 Este 52 Este -- -- -- 77
2017-11-14 20:00:00 11.4 36 Este 54 Este -- -- -- 76
2017-11-14 19:00:00 11 38 Este 54 Este -- -- -- 73
2017-11-14 18:00:00 11.5 36 Este 63 Este -- -- -- 74
2017-11-14 17:00:00 11.9 33 Este 56 Este -- -- -- 73
2017-11-14 16:00:00 12.3 32 Este 53 Este -- -- -- 72
2017-11-14 15:00:00 12.9 31 Este 49 Este -- -- -- 70
2017-11-14 14:00:00 12.9 31 Este 46 Este -- -- -- 69
2017-11-14 13:00:00 13.4 31 Este 46 Este -- -- -- 69
2017-11-14 12:00:00 12.5 28 Este 38 Este -- -- -- 67
2017-11-14 11:00:00 12 19 Sudeste 27 Sudeste -- -- -- 71
2017-11-14 10:00:00 10.5 17 Sudeste 24 Sudeste -- -- -- 70
2017-11-14 09:00:00 9.2 16 Sudeste 24 Este -- -- -- 75
2017-11-14 08:00:00 8.4 17 Sudeste 23 Sudeste -- -- -- 75
2017-11-14 07:00:00 8.5 17 Sudeste 21 Sudeste -- -- -- 72
2017-11-14 06:00:00 8.2 7 Sudeste 19 Sur -- -- -- 75
2017-11-14 05:00:00 9.2 5 Sudeste 18 Sudeste -- -- -- 74
2017-11-14 04:00:00 9.5 13 Sudeste 18 Sudeste -- -- -- 72
2017-11-14 03:00:00 9.5 7 Sudeste 18 Sudeste -- -- -- 72
2017-11-14 02:00:00 9.9 13 Sudeste 21 Sudeste -- -- -- 72
2017-11-14 01:00:00 8.6 6 Sudeste 19 Sudeste -- -- -- 73
2017-11-14 00:00:00 9.5 12 Sudeste 28 Este -- -- -- 70
2017-11-13 23:00:00 11.3 18 Este 31 Este -- -- -- 65
2017-11-13 22:00:00 11.5 17 Este 28 Este -- -- -- 64
2017-11-13 21:00:00 11.7 17 Este 33 Este -- -- -- 65
2017-11-13 20:00:00 11 8 Sudeste 27 Sudeste -- -- -- 57
2017-11-13 19:00:00 11 11 Sudeste 31 Sudeste -- -- -- 59
2017-11-13 18:00:00 11.1 11 Sudeste 26 Este -- -- -- 57
2017-11-13 17:00:00 11.8 12 Este 23 Este -- -- -- 58
2017-11-13 16:00:00 12.1 10 Este 23 Este -- -- -- 56
2017-11-13 15:00:00 11.9 9 Este 26 Este -- -- -- 58
2017-11-13 14:00:00 12.2 9 Este 32 Sudeste -- -- -- 56
2017-11-13 13:00:00 12.1 9 Este 32 Nordeste -- -- -- 59
2017-11-13 12:00:00 11.9 12 Este 37 Este -- -- -- 63
2017-11-13 11:00:00 11.9 10 Este 30 Nordeste -- -- -- 68
2017-11-13 10:00:00 -- -- -- -- -- -- -- -- --
2017-11-13 09:00:00 -- 8 Este 36 Nordeste -- -- -- --
2017-11-13 08:00:00 -- 8 Sudeste 23 Sudeste -- -- -- --
2017-11-13 07:00:00 -- 3 Sur 22 Sudeste -- -- -- --
2017-11-13 06:00:00 -- 4 Sur 19 Sur -- -- -- --
2017-11-13 05:00:00 -- 4 Sudeste 19 Sur -- -- -- --
2017-11-13 04:00:00 -- 7 Sudeste 26 Este -- -- -- --
2017-11-13 03:00:00 -- 7 Sudeste 27 Sudeste -- -- -- --
2017-11-13 02:00:00 -- 7 Sudeste 24 Sudeste -- -- -- --
2017-11-13 01:00:00 -- 7 Sudeste 27 Este -- -- -- --
2017-11-13 00:00:00 -- 8 Sur 26 Sudeste -- -- -- --
2017-11-12 23:00:00 -- 7 Sur 27 Sudoeste -- -- -- --
2017-11-12 22:00:00 -- 8 Norte 30 Noroeste -- -- -- --
2017-11-12 21:00:00 -- 15 Noroeste 27 Noroeste -- -- -- --
2017-11-12 20:00:00 -- 14 Noroeste 36 Noroeste -- -- -- --
2017-11-12 19:00:00 -- 14 Oeste 30 Oeste -- -- -- --
2017-11-12 18:00:00 -- 14 Noroeste 35 Oeste -- -- -- --
2017-11-12 17:00:00 -- 18 Oeste 51 Oeste -- -- -- --
2017-11-12 16:00:00 -- 30 Oeste 49 Oeste -- -- -- --
2017-11-12 15:00:00 -- 30 Oeste 45 Oeste -- -- -- --
2017-11-12 14:00:00 -- 27 Oeste 50 Oeste -- -- -- --
2017-11-12 13:00:00 -- 29 Oeste 51 Oeste -- -- -- --
2017-11-12 12:00:00 -- 19 Oeste 39 Sudoeste -- -- -- --
2017-11-12 11:00:00 -- 23 Sudoeste 36 Sudoeste -- -- -- --
2017-11-12 10:00:00 -- 23 Sudoeste 34 Sudoeste -- -- -- --
2017-11-12 09:00:00 -- 23 Sudoeste 44 Oeste -- -- -- --
2017-11-12 08:00:00 -- 32 Oeste 52 Oeste -- -- -- --
2017-11-12 07:00:00 -- 22 Oeste 36 Oeste -- -- -- --
2017-11-12 06:00:00 -- 18 Sudoeste 33 Sudoeste -- -- -- --
2017-11-12 05:00:00 -- 17 Oeste 39 Oeste -- -- -- --
2017-11-12 04:00:00 -- 16 Sudoeste 26 Sudoeste -- -- -- --
2017-11-12 03:00:00 -- 15 Oeste 25 Oeste -- -- -- --
2017-11-12 02:00:00 -- 16 Sudoeste 35 Oeste -- -- -- --
2017-11-12 01:00:00 -- 22 Oeste 41 Oeste -- -- -- --
2017-11-12 00:00:00 -- 20 Oeste 40 Oeste -- -- -- --
2017-11-11 23:00:00 -- 16 Oeste 25 Sudoeste -- -- -- --
2017-11-11 22:00:00 -- 14 Oeste 31 Oeste -- -- -- --
2017-11-11 21:00:00 -- 15 Oeste 42 Noroeste -- -- -- --
2017-11-11 20:00:00 -- 21 Oeste 32 Oeste -- -- -- --
2017-11-11 19:00:00 -- 18 Oeste 34 Oeste -- -- -- --
2017-11-11 18:00:00 -- 22 Oeste 35 Oeste -- -- -- --
2017-11-11 17:00:00 -- 22 Sudoeste 33 Sudoeste -- -- -- --
2017-11-11 16:00:00 -- 21 Oeste 40 Oeste -- -- -- --
2017-11-11 15:00:00 -- 15 Oeste 30 Oeste -- -- -- --
2017-11-11 14:00:00 -- 20 Sudoeste 36 Oeste -- -- -- --
2017-11-11 13:00:00 -- 18 Oeste 35 Oeste -- -- -- --
2017-11-11 12:00:00 -- 20 Sudoeste 30 Sudoeste -- -- -- --
2017-11-11 11:00:00 -- 22 Sudoeste 31 Sudoeste -- -- -- --
2017-11-11 10:00:00 -- 21 Sudoeste 28 Oeste -- -- -- --
2017-11-11 09:00:00 -- 14 Oeste 27 Sudoeste -- -- -- --
2017-11-11 08:00:00 -- 15 Sudoeste 22 Sudoeste -- -- -- --
2017-11-11 07:00:00 -- 17 Sudoeste 23 Sudoeste -- -- -- --
2017-11-11 06:00:00 -- 16 Sudoeste 21 Sudoeste -- -- -- --
2017-11-11 05:00:00 -- 13 Sudoeste 20 Sudoeste -- -- -- --
2017-11-11 04:00:00 -- 15 Sudoeste 20 Sudoeste -- -- -- --
2017-11-11 03:00:00 -- 13 Sudoeste 20 Sudoeste -- -- -- --
2017-11-11 02:00:00 -- 14 Sudoeste 21 Sudoeste -- -- -- --
2017-11-11 01:00:00 -- 15 Oeste 23 Oeste -- -- -- --
2017-11-11 00:00:00 -- 18 Sudoeste 22 Sudoeste -- -- -- --
2017-11-10 23:00:00 -- 10 Sudoeste 21 Noroeste -- -- -- --
2017-11-10 22:00:00 -- 10 Noroeste 47 Norte -- -- -- --
2017-11-10 21:00:00 -- 13 Noroeste 35 Norte -- -- -- --
2017-11-10 20:00:00 13.9 16 Noroeste 27 Noroeste -- -- -- 76
2017-11-10 19:00:00 13.6 12 Noroeste 34 Norte -- -- -- 84
2017-11-10 18:00:00 14 13 Noroeste 32 Noroeste -- -- -- 81
2017-11-10 17:00:00 14 16 Noroeste 26 Noroeste -- -- -- 82
2017-11-10 16:00:00 13.5 11 Noroeste 30 Noroeste -- -- -- 82
2017-11-10 15:00:00 13.9 17 Noroeste 33 Noroeste -- -- -- 82
2017-11-10 14:00:00 13.8 17 Noroeste 37 Noroeste -- -- -- 85
2017-11-10 13:00:00 14.1 13 Noroeste 34 Noroeste -- -- -- 86
2017-11-10 12:00:00 13.3 8 Sudeste 47 Noroeste -- -- -- 93
2017-11-10 11:00:00 14.7 0 Calma 28 Norte -- -- -- 89
2017-11-10 10:00:00 13.4 10 Noroeste 32 Norte -- -- -- 93
2017-11-10 09:00:00 13.2 6 Sur 37 Oeste -- -- -- 93
2017-11-10 08:00:00 14 5 Este 32 Nordeste -- -- -- 91
2017-11-10 07:00:00 13 5 Sudeste 31 Nordeste -- -- -- 93
2017-11-10 06:00:00 13.3 9 Noroeste 33 Norte -- -- -- 94
2017-11-10 05:00:00 12.5 14 Oeste 26 Oeste -- -- -- 94
2017-11-10 04:00:00 12.9 10 Noroeste 23 Noroeste -- -- -- 93
2017-11-10 03:00:00 12.3 12 Oeste 24 Sudoeste -- -- -- 94
2017-11-10 02:00:00 11.9 12 Noroeste 20 Oeste -- -- -- 93
2017-11-10 01:00:00 13 7 Noroeste 21 Noroeste -- -- -- 90
2017-11-10 00:00:00 11.6 6 Oeste 17 Oeste -- -- -- 94
2017-11-09 23:00:00 10.8 10 Sudoeste 22 Sudoeste -- -- -- 94
2017-11-09 22:00:00 11.4 15 Oeste 26 Oeste -- -- -- 94
2017-11-09 21:00:00 11.6 12 Noroeste 24 Oeste -- -- -- 93
2017-11-09 20:00:00 11.5 12 Oeste 20 Oeste -- -- -- 93
2017-11-09 19:00:00 10.7 10 Sudoeste 18 Sudoeste -- -- -- 93
2017-11-09 18:00:00 11.2 14 Sudoeste 19 Sudoeste -- -- -- 89
2017-11-09 17:00:00 11.1 12 Oeste 18 Sudoeste -- -- -- 89
2017-11-09 16:00:00 10.9 8 Oeste 16 Oeste -- -- -- 90
2017-11-09 15:00:00 11.3 9 Oeste 18 Oeste -- -- -- 89
2017-11-09 14:00:00 11.3 8 Oeste 19 Sudoeste -- -- -- 89
2017-11-09 13:00:00 10.9 10 Sudoeste 21 Sudoeste -- -- -- 91
2017-11-09 12:00:00 8.9 14 Sudoeste 22 Sudoeste -- -- -- 94
2017-11-09 11:00:00 9 15 Sudoeste 23 Sudoeste -- -- -- 93
2017-11-09 10:00:00 9.3 17 Sudoeste 24 Sudoeste -- -- -- 90
2017-11-09 09:00:00 9 14 Sudoeste 20 Sudoeste -- -- -- 82
2017-11-09 08:00:00 9.2 15 Sudoeste 18 Sudoeste -- -- -- 77
2017-11-09 07:00:00 9.4 14 Sudoeste 18 Sudoeste -- -- -- 84
2017-11-09 06:00:00 8.7 15 Sudoeste 19 Sudoeste -- -- -- 85
2017-11-09 05:00:00 8.5 15 Sudoeste 21 Sudoeste -- -- -- 86
2017-11-09 04:00:00 8.4 15 Sudoeste 18 Sudoeste -- -- -- 85
2017-11-09 03:00:00 8.2 16 Sudoeste 19 Sudoeste -- -- -- 86
2017-11-09 02:00:00 8.7 14 Sudoeste 16 Sudoeste -- -- -- 84
2017-11-09 01:00:00 8.5 13 Sudoeste 20 Sudoeste -- -- -- 88
2017-11-09 00:00:00 8.2 15 Sudoeste 21 Sudoeste -- -- -- 91
2017-11-08 23:00:00 8.1 14 Sudoeste 18 Sudoeste -- -- -- 90
2017-11-08 22:00:00 10 3 Norte 22 Sur -- -- -- 81
2017-11-08 21:00:00 10.6 3 Sur 28 Este -- -- -- 70
2017-11-08 20:00:00 11 5 Sudeste 27 Este 0 -- -- 68
2017-11-08 19:00:00 10.9 6 Sur 26 Sudeste 0 -- -- 70
2017-11-08 18:00:00 10.7 3 Sur 23 Sur 0 -- -- 75
2017-11-08 17:00:00 10.1 10 Sur 36 Norte 0 -- -- 89
2017-11-08 16:00:00 11.1 8 Sudeste 43 Este 0 -- -- 81
2017-11-08 15:00:00 11.9 5 Noroeste 41 Sudeste 0 -- -- 76
2017-11-08 14:00:00 11.2 6 Sudeste 40 Norte 0 -- -- 82
2017-11-08 13:00:00 11.5 13 Sudeste 47 Noroeste 0.1 -- -- 80
2017-11-08 12:00:00 12.2 27 Noroeste 42 Noroeste 0 -- -- 70
2017-11-08 11:00:00 10.4 19 Sudoeste 35 Norte 0 -- -- 91
2017-11-08 10:00:00 9.5 18 Sudoeste 35 Noroeste 0 -- -- 90
2017-11-08 09:00:00 11 16 Noroeste 40 Norte 0 -- -- 77
2017-11-08 08:00:00 10.3 14 Oeste 42 Noroeste 0 -- -- 77
2017-11-08 07:00:00 12.2 19 Noroeste 36 Noroeste 0 -- -- 63
2017-11-08 06:00:00 11.9 6 Noroeste 44 Norte 0 -- -- 68
2017-11-08 05:00:00 10.2 10 Noroeste 46 Noroeste 0 -- -- 67
2017-11-08 04:00:00 11.7 4 Sudeste 40 Noroeste 0 -- -- 64
2017-11-08 03:00:00 11.7 6 Sudeste 36 Noroeste 0 -- -- 62
2017-11-08 02:00:00 11.7 5 Noroeste 44 Norte 0 -- -- 63
2017-11-08 01:00:00 11.8 4 Sudeste 50 Noroeste 0.5 -- -- 72
2017-11-08 00:00:00 10.8 12 Norte 65 Nordeste 0 -- -- 89
2017-11-07 23:00:00 11.2 5 Sudeste 53 Nordeste 0 -- -- 87
2017-11-07 22:00:00 12.7 14 Norte 44 Noroeste 0 -- -- 73
2017-11-07 21:00:00 13.2 17 Noroeste 56 Norte 0 -- -- 62
2017-11-07 20:00:00 12.9 10 Sudeste 45 Norte 0 -- -- 67
2017-11-07 19:00:00 12.8 4 Sudeste 47 Norte 0 -- -- 77
2017-11-07 18:00:00 12.4 3 Sudeste 50 Norte 0 -- -- 91
2017-11-07 17:00:00 12.4 21 Noroeste 54 Norte 0.2 -- -- 94
2017-11-07 16:00:00 12.4 19 Oeste 41 Oeste 0 -- -- 89
2017-11-07 15:00:00 11.6 11 Oeste 28 Oeste 0 -- -- 90
2017-11-07 14:00:00 12 16 Sudoeste 24 Sudoeste 0 -- -- 80
2017-11-07 13:00:00 12.1 9 Oeste 19 Oeste 0 -- -- 82
2017-11-07 12:00:00 11.9 9 Sudoeste 17 Sudoeste 0 -- -- 80
2017-11-07 11:00:00 11.2 12 Oeste 17 Sudoeste 0 -- -- 84
2017-11-07 10:00:00 9.8 14 Sudoeste 18 Sudoeste 0 -- -- 85
2017-11-07 09:00:00 8.6 15 Sudoeste 20 Sudoeste 0 -- -- 90
2017-11-07 08:00:00 8.1 15 Sudoeste 18 Sudoeste 0 -- -- 86
2017-11-07 07:00:00 8.9 11 Sudoeste 13 Sur 0 -- -- 81
2017-11-07 06:00:00 9.2 7 Sur 15 Sur 0 -- -- 82
2017-11-07 05:00:00 8.3 4 Sur 13 Sudeste 0 -- -- 82
2017-11-07 04:00:00 9.2 4 Sudeste 15 Sudeste 0 -- -- 82
2017-11-07 03:00:00 10.1 13 Sudeste 18 Sudeste 0 -- -- 72
2017-11-07 02:00:00 9.6 5 Sudeste 16 Sudeste 0 -- -- 74
2017-11-07 01:00:00 10.5 9 Sudeste 18 Sudeste 0 -- -- 70
2017-11-07 00:00:00 10.9 9 Sudeste 16 Sudeste 0 -- -- 71
2017-11-06 23:00:00 10.5 4 Sudeste 14 Sudeste 0 -- -- 72
2017-11-06 22:00:00 10.7 5 Sudeste 13 Sudeste 0 -- -- 75
2017-11-06 21:00:00 10.9 4 Sudeste 14 Este 0 -- -- 75
2017-11-06 20:00:00 11.7 11 Este 21 Este 0 -- -- 68
2017-11-06 19:00:00 12.2 10 Este 16 Este 0 -- -- 67
2017-11-06 18:00:00 12.5 5 Este 18 Este 0 -- -- 67
2017-11-06 17:00:00 12.6 9 Este 17 Este 0 -- -- 68
2017-11-06 16:00:00 13.1 4 Este 10 Este 0 -- -- 73
2017-11-06 15:00:00 13.6 3 Este 11 Sudeste 0 -- -- 75
2017-11-06 14:00:00 14 2 Norte 9 Noroeste 0 -- -- 77
2017-11-06 13:00:00 13.4 0 Calma 9 Sudoeste 0 -- -- 76
2017-11-06 12:00:00 13.1 6 Sudoeste 12 Sudoeste 0 -- -- 85
2017-11-06 11:00:00 12.3 9 Sudoeste -- -- -- -- -- 89
2017-11-06 10:00:00 11.9 10 Sudoeste 14 Sudoeste 0 -- -- 90
2017-11-06 09:00:00 10.9 10 Sudoeste 18 Sudoeste 0 -- -- 93
2017-11-06 08:00:00 10.5 15 Sudoeste 18 Sudoeste 0 -- -- 92
2017-11-06 07:00:00 11.6 4 Sudoeste 11 Sudoeste 0 -- -- 84
2017-11-06 06:00:00 12 6 Noroeste 28 Oeste 0 -- -- 77
2017-11-06 05:00:00 12.4 3 Sur 12 Norte 0 -- -- 75
2017-11-06 04:00:00 12.4 4 Sur 15 Sur 0 -- -- 80
2017-11-06 03:00:00 12.1 5 Sudeste 21 Noroeste 0 -- -- 76
2017-11-06 02:00:00 12.4 4 Sudeste 23 Este 0.1 -- -- 77
2017-11-06 01:00:00 12.4 0 Calma 17 Sudeste 0.2 -- -- 87
2017-11-06 00:00:00 12.5 11 Noroeste 42 Nordeste 0.2 -- -- 82
2017-11-05 23:00:00 12.5 8 Sur 27 Nordeste 0 -- -- 86
2017-11-05 22:00:00 12 6 Norte 42 Noroeste 0.2 -- -- 82
2017-11-05 21:00:00 12.4 15 Norte 36 Norte 0 -- -- 73
2017-11-05 20:00:00 12.3 17 Noroeste 46 Noroeste 1.8 -- -- 83
2017-11-05 19:00:00 12.8 16 Noroeste 36 Norte 0 -- -- 76
2017-11-05 18:00:00 12.2 26 Noroeste 50 Noroeste 0 -- -- 77
2017-11-05 17:00:00 12.7 22 Noroeste 45 Noroeste 0 -- -- 71
2017-11-05 16:00:00 12.8 18 Noroeste 39 Norte 0.3 -- -- 77
2017-11-05 15:00:00 11.5 18 Noroeste 47 Noroeste 0.6 -- -- 86
2017-11-05 14:00:00 13.6 25 Noroeste 46 Noroeste 0 -- -- 63
2017-11-05 13:00:00 12.6 20 Oeste 46 Noroeste 0.8 -- -- 89
2017-11-05 12:00:00 12.3 14 Oeste 40 Noroeste 0 -- -- 79
2017-11-05 11:00:00 12 21 Noroeste 46 Oeste 0 -- -- 77
2017-11-05 10:00:00 12.7 23 Noroeste 41 Noroeste 0 -- -- 75
2017-11-05 09:00:00 11.4 22 Noroeste 63 Noroeste 0.5 -- -- 77
2017-11-05 08:00:00 -- 26 Noroeste 45 Norte 0 -- -- --
2017-11-05 07:00:00 -- 30 Noroeste 48 Noroeste 0 -- -- --
2017-11-05 06:00:00 -- 12 Noroeste 39 Noroeste 3.3 -- -- --
2017-11-05 05:00:00 -- 15 Norte 51 Noroeste 1.2 -- -- --
2017-11-05 04:00:00 -- 0 Calma 49 Noroeste 0.1 -- -- --
2017-11-05 03:00:00 -- 12 Noroeste 46 Norte 0 -- -- --
2017-11-05 02:00:00 -- 0 Calma 45 Norte 0 -- -- --
2017-11-05 01:00:00 -- 3 Sudeste 46 Norte 0 -- -- --
2017-11-05 00:00:00 -- 0 Calma 44 Norte 0 -- -- --
2017-11-04 23:00:00 13.9 11 Sudeste 35 Sudeste 0 -- -- 76
2017-11-04 22:00:00 13.5 13 Sudeste 46 Norte 0.5 -- -- 82
2017-11-04 21:00:00 13.2 3 Sudeste 37 Noroeste 0.2 -- -- 84
2017-11-04 20:00:00 13.8 9 Sudeste 42 Este 0.1 -- -- 89
2017-11-04 19:00:00 13.7 9 Sudeste 44 Norte 0.1 -- -- 87
2017-11-04 18:00:00 14 6 Sudeste 58 Noroeste 3.3 -- -- 94
2017-11-04 17:00:00 14 27 Oeste 42 Oeste 0.2 -- -- 93
2017-11-04 16:00:00 14.5 23 Oeste 34 Oeste 0.1 -- -- 91
2017-11-04 15:00:00 14.7 13 Oeste 27 Noroeste 0 -- -- 90
2017-11-04 14:00:00 14.6 14 Noroeste 31 Norte 0 -- -- 91
2017-11-04 13:00:00 13.9 17 Noroeste 31 Noroeste 0.1 -- -- 90
2017-11-04 12:00:00 15 12 Oeste 17 Oeste 0 -- -- 90
2017-11-04 11:00:00 14.5 13 Sudoeste 17 Sudoeste 0 -- -- 90
2017-11-04 10:00:00 13 13 Sudoeste 15 Oeste 0 -- -- 89
2017-11-04 09:00:00 13 11 Sudoeste 13 Sudoeste 0 -- -- 89
2017-11-04 08:00:00 12.4 10 Sudoeste 12 Sudoeste 0 -- -- 89
2017-11-04 07:00:00 12.9 9 Sudoeste 11 Sudoeste 0 -- -- 90
2017-11-04 06:00:00 13.5 5 Sur 11 Sudeste 0 -- -- 90
2017-11-04 05:00:00 13.6 3 Sudeste 6 Sudeste 0 -- -- 90
2017-11-04 04:00:00 14.2 2 Norte 5 Este 0 -- -- 88
2017-11-04 03:00:00 14 4 Nordeste 6 Nordeste 0 -- -- 85
2017-11-04 02:00:00 13.6 5 Sudeste 7 Sudeste 0 -- -- 84
2017-11-04 01:00:00 14.5 0 Calma 8 Sudoeste 0 -- -- 82
2017-11-04 00:00:00 13.6 4 Sur 9 Sudeste 0 -- -- 85
2017-11-03 23:00:00 13.7 0 Calma 12 Sudeste 0 -- -- 82
2017-11-03 22:00:00 13.5 4 Sudeste 13 Sudeste 0 -- -- 86
2017-11-03 21:00:00 14.5 6 Sudeste 21 Sudeste 0 -- -- 85
2017-11-03 20:00:00 14.3 11 Sudeste 18 Sudeste 0 -- -- 89
2017-11-03 19:00:00 14.2 2 Sur 9 Sudeste 0 -- -- 86
2017-11-03 18:00:00 14.9 3 Sudeste 10 Sudoeste 0.2 -- -- 88
2017-11-03 17:00:00 15.4 3 Noroeste 10 Noroeste 0 -- -- 85
2017-11-03 16:00:00 15.9 0 Calma 8 Noroeste 0 -- -- 85
2017-11-03 15:00:00 15.6 3 Norte 6 Norte 0 -- -- 85
2017-11-03 14:00:00 15.7 3 Noroeste 8 Noroeste 0.1 -- -- 81
2017-11-03 13:00:00 16.3 5 Noroeste 12 Oeste 0 -- -- 76
2017-11-03 12:00:00 16.5 4 Noroeste 15 Sudoeste 0 -- -- 76
2017-11-03 11:00:00 14.8 13 Sudoeste 17 Sudoeste 0 -- -- 89
2017-11-03 10:00:00 15.1 9 Sudoeste 13 Sudoeste 0 -- -- 88
2017-11-03 09:00:00 13.9 0 Calma 16 Sudoeste 0.2 -- -- 89
2017-11-03 08:00:00 12.7 10 Sudoeste 21 Sudoeste 0.4 -- -- 91
2017-11-03 07:00:00 -- 4 Sur 12 Sudeste 0 -- -- --
2017-11-03 06:00:00 -- 5 Sur 10 Sudoeste 0 -- -- --
2017-11-03 05:00:00 -- 6 Sudeste 12 Sudeste 0.1 -- -- --
2017-11-03 04:00:00 -- 10 Oeste 13 Sudoeste 0 -- -- --
2017-11-03 03:00:00 -- 8 Sudoeste 13 Sudoeste 0 -- -- --
2017-11-03 02:00:00 -- 4 Sur 8 Sudoeste 0 -- -- --
2017-11-03 01:00:00 -- 3 Sudoeste 14 Sudeste 0 -- -- --
2017-11-03 00:00:00 -- 8 Sudeste 13 Sudeste 0 -- -- --
2017-11-02 23:00:00 -- 3 Sur 7 Oeste 0.1 -- -- --
2017-11-02 22:00:00 -- 4 Este 6 Sudeste 0 -- -- --
2017-11-02 21:00:00 -- 0 Calma 4 Nordeste 0.1 -- -- --
2017-11-02 20:00:00 -- 0 Calma 11 Sudoeste 0.3 -- -- --
2017-11-02 19:00:00 -- 10 Sudoeste 23 Sudoeste 1.4 -- -- --
2017-11-02 18:00:00 -- 17 Sudoeste 24 Sudoeste 0.1 -- -- --
2017-11-02 17:00:00 -- 14 Noroeste 35 Noroeste 0 -- -- --
2017-11-02 16:00:00 -- 20 Oeste 31 Oeste 0 -- -- --
2017-11-02 15:00:00 -- 12 Noroeste 26 Noroeste 0 -- -- --
2017-11-02 14:00:00 16.3 14 Oeste 20 Oeste 0 -- -- 90
2017-11-02 13:00:00 17.4 8 Oeste 18 Oeste 0 -- -- 84
2017-11-02 12:00:00 16.9 9 Oeste 22 Oeste 0 -- -- 85
2017-11-02 11:00:00 16.5 14 Oeste 22 Oeste 0 -- -- 85
2017-11-02 10:00:00 15.4 17 Oeste 24 Oeste 0 -- -- 77
2017-11-02 09:00:00 15.2 19 Sudoeste 23 Sudoeste 0 -- -- 84
2017-11-02 08:00:00 15.8 3 Oeste 17 Sudoeste 0 -- -- 74
2017-11-02 07:00:00 16.8 4 Sudeste 13 Sur 0 -- -- 66
2017-11-02 06:00:00 15.7 2 Oeste 17 Sudoeste 0 -- -- 69
2017-11-02 05:00:00 16.2 3 Sudeste 19 Sudoeste 0 -- -- 64
2017-11-02 04:00:00 16.3 14 Sudoeste 19 Sudeste 0 -- -- 68
2017-11-02 03:00:00 16.9 15 Sudeste 21 Sudeste 0 -- -- 68
2017-11-02 02:00:00 18.5 3 Sur 17 Sudeste 0 -- -- 52
2017-11-02 01:00:00 18.6 3 Sur 15 Sudeste 0 -- -- 53
2017-11-02 00:00:00 17.6 6 Sudeste 12 Sudoeste 0 -- -- 60
2017-11-01 23:00:00 18.1 4 Sudeste 12 Sur 0 -- -- 61
2017-11-01 22:00:00 17.9 4 Sur 9 Sur 0 -- -- 60
2017-11-01 21:00:00 17.1 8 Sur 13 Sudoeste 0 -- -- 73
2017-11-01 20:00:00 16.6 5 Sudeste 11 Este 0 -- -- 86
2017-11-01 19:00:00 16 6 Este 9 Sudeste 0 -- -- 85
2017-11-01 18:00:00 17.2 3 Nordeste 9 Nordeste 0 -- -- 84
2017-11-01 17:00:00 17.1 3 Nordeste 16 Sudeste 0 -- -- 73
2017-11-01 16:00:00 16.7 13 Este 17 Sudeste 0 -- -- 76
2017-11-01 15:00:00 17.1 10 Sudeste 19 Sudeste 0 -- -- 66
2017-11-01 14:00:00 18.3 14 Sudeste 17 Sudeste 0 -- -- 61
2017-11-01 13:00:00 19.4 4 Sudeste 12 Sudeste 0 -- -- 50
2017-11-01 12:00:00 18.6 6 Sur 16 Sur 0 -- -- 48
2017-11-01 11:00:00 18.5 4 Sur 10 Sudoeste 0 -- -- 47
2017-11-01 10:00:00 17.2 5 Sudoeste 14 Sudoeste 0 -- -- 48
2017-11-01 09:00:00 15.7 10 Sudoeste 22 Sur 0 -- -- 43
2017-11-01 08:00:00 15.5 17 Sudoeste 23 Sudoeste 0 -- -- 42
2017-11-01 07:00:00 15.3 9 Sudoeste 15 Sudoeste 0 -- -- 40
2017-11-01 06:00:00 15.3 5 Sudoeste 15 Sudoeste 0 -- -- 43
2017-11-01 05:00:00 12.7 5 Sur 13 Sudoeste 0 -- -- 60
2017-11-01 04:00:00 12 6 Sudoeste 14 Sudoeste 0 -- -- 71
2017-11-01 03:00:00 12.2 6 Sudoeste 8 Sudoeste 0 -- -- 76
2017-11-01 02:00:00 12.2 3 Oeste 11 Sudeste 0 -- -- 76
2017-11-01 01:00:00 12.4 10 Sudeste 17 Sudeste 0 -- -- 77
2017-11-01 00:00:00 11.6 5 Sudeste 15 Sudeste 0 -- -- 81
2017-10-31 23:00:00 12.1 13 Sudeste 18 Sudeste 0 -- -- 76
2017-10-31 22:00:00 12.5 15 Sudeste 19 Sudeste 0 -- -- 77
2017-10-31 21:00:00 12 14 Sudeste 22 Sudeste 0 -- -- 85
2017-10-31 20:00:00 12.4 18 Sudeste 28 Este 0 -- -- 86
2017-10-31 19:00:00 12.9 18 Este 30 Este 0 -- -- 82
2017-10-31 18:00:00 13.1 20 Este 36 Este 0 -- -- 80
2017-10-31 17:00:00 13 24 Este 39 Este 0 -- -- 77
2017-10-31 16:00:00 13.8 24 Este 43 Este 0 -- -- 74
2017-10-31 15:00:00 14.3 26 Este 43 Este 0 -- -- 75
2017-10-31 14:00:00 14.3 29 Este 48 Este 0 -- -- 72
2017-10-31 13:00:00 13.7 32 Este 47 Este 0 -- -- 70
2017-10-31 12:00:00 13.7 31 Este 46 Este 0 -- -- 67
2017-10-31 11:00:00 13.6 30 Este 41 Sudeste 0 -- -- 64
2017-10-31 10:00:00 12.6 25 Sudeste 40 Sudeste 0 -- -- 66
2017-10-31 09:00:00 12.2 24 Sudeste 36 Sudeste 0 -- -- 67
2017-10-31 08:00:00 12.2 22 Sudeste 34 Este 0 -- -- 68
2017-10-31 07:00:00 12.3 23 Sudeste 32 Sudeste 0 -- -- 70
2017-10-31 06:00:00 12.5 21 Sudeste 29 Sudeste 0 -- -- 70
2017-10-31 05:00:00 12.5 21 Sudeste 35 Sudeste 0 -- -- 68
2017-10-31 04:00:00 12.5 23 Sudeste 37 Sudeste 0 -- -- 68
2017-10-31 03:00:00 12.9 23 Sudeste 36 Sudeste 0 -- -- 71
2017-10-31 02:00:00 13.1 23 Este 39 Este 0 -- -- 72
2017-10-31 01:00:00 13.1 23 Este 44 Este 0 -- -- 73
2017-10-31 00:00:00 13.3 30 Este 50 Este 0 -- -- 68
2017-10-30 23:00:00 13.5 30 Este 53 Este 0 -- -- 73
2017-10-30 22:00:00 13.4 29 Este 56 Este 0 -- -- 74
2017-10-30 21:00:00 13.5 32 Este 52 Este 0 -- -- 76
2017-10-30 20:00:00 13.4 31 Este 52 Este 0 -- -- 77
2017-10-30 19:00:00 13.9 30 Este 55 Este 0 -- -- 80
2017-10-30 18:00:00 14.5 29 Este 50 Este 0 -- -- 80
2017-10-30 17:00:00 14.4 33 Este 56 Sudeste 0 -- -- 81
2017-10-30 16:00:00 14.9 29 Sudeste 50 Este 0 -- -- 85
2017-10-30 15:00:00 16.2 20 Este 37 Este 0 -- -- 76
2017-10-30 14:00:00 15.2 21 Este 38 Este 0.1 -- -- 81
2017-10-30 13:00:00 14.8 13 Sudeste 41 Nordeste 0 -- -- 87
2017-10-30 12:00:00 14.2 9 Este 32 Sudeste 0 -- -- 91
2017-10-30 11:00:00 14.5 15 Este 36 Este 0.4 -- -- 91
2017-10-30 10:00:00 14.8 12 Este 27 Norte 0 -- -- 84
2017-10-30 09:00:00 14.5 8 Este 25 Este 0 -- -- 86
2017-10-30 08:00:00 13.9 7 Sudeste 20 Este 0.1 -- -- 90
2017-10-30 07:00:00 13.7 5 Sudeste 22 Sudeste 0.2 -- -- 91
2017-10-30 06:00:00 13.6 5 Nordeste 20 Noroeste 2 -- -- 94
2017-10-30 05:00:00 13.9 3 Sudeste 13 Sudeste 0 -- -- 92
2017-10-30 04:00:00 13.8 3 Sur 16 Sur 0 -- -- 91
2017-10-30 03:00:00 14 8 Noroeste 17 Noroeste 0.1 -- -- 91
2017-10-30 02:00:00 13.8 0 Calma 7 Sudoeste 0 -- -- 91
2017-10-30 01:00:00 14.4 5 Sudeste 17 Sudeste 0 -- -- 89
2017-10-30 00:00:00 15 8 Este 19 Sudeste 0 -- -- 86
2017-10-29 23:00:00 15 7 Este 19 Sudeste 0 -- -- 86
2017-10-29 22:00:00 14.9 6 Este 19 Nordeste 0 -- -- 86
2017-10-29 21:00:00 14.1 5 Sudeste 25 Sudeste 0.1 -- -- 91
2017-10-29 20:00:00 14.8 4 Sudeste 14 Sudeste 0 -- -- 90
2017-10-29 19:00:00 14.4 6 Este 12 Este 0 -- -- 85
2017-10-29 18:00:00 14.7 10 Este 15 Sudeste 0 -- -- 85
2017-10-29 17:00:00 15.5 4 Este 14 Este 0 -- -- 81
2017-10-29 16:00:00 15.8 4 Este 14 Este 0 -- -- 76
2017-10-29 15:00:00 15.8 3 Nordeste 12 Este 0 -- -- 71
2017-10-29 14:00:00 15.7 4 Sudeste 10 Sudeste 0 -- -- 71
2017-10-29 13:00:00 16 6 Sudeste 17 Sudeste 0 -- -- 68
2017-10-29 12:00:00 16.4 11 Sudeste 17 Sudeste 0 -- -- 69
2017-10-29 11:00:00 17.4 10 Este 15 Sudeste 0 -- -- 72
2017-10-29 10:00:00 16.9 9 Este 17 Sudeste 0 -- -- 72
2017-10-29 09:00:00 14.3 10 Sudeste 16 Sudeste 0 -- -- 87
2017-10-29 08:00:00 13.9 9 Sudeste 17 Sudeste 0 -- -- 87
2017-10-29 07:00:00 13.6 9 Sudeste 17 Sudeste 0 -- -- 87
2017-10-29 06:00:00 14.2 14 Sudeste 20 Sudeste 0 -- -- 90
2017-10-29 05:00:00 14.8 12 Sudeste 20 Sudeste 0 -- -- 91
2017-10-29 04:00:00 14.8 10 Este 24 Este 0 -- -- 87
2017-10-29 03:00:00 15.3 13 Este 23 Este 0 -- -- 90
2017-10-29 02:00:00 15.2 13 Este 22 Este 0 -- -- 93
2017-10-29 01:00:00 15.1 13 Sudeste 19 Este 0 -- -- 91
2017-10-29 00:00:00 15.5 11 Este 22 Este 0 -- -- 91
2017-10-28 23:00:00 16.3 14 Este 30 Este 0 -- -- 90
2017-10-28 22:00:00 16.2 18 Este 34 Este 0 -- -- 89
2017-10-28 21:00:00 16.3 20 Este 31 Este 0 -- -- 88
2017-10-28 20:00:00 16.4 19 Este 32 Este 0 -- -- 88
2017-10-28 19:00:00 16.1 21 Este 32 Este 0 -- -- 87
2017-10-28 18:00:00 16.6 18 Este 33 Este 0 -- -- 88
2017-10-28 17:00:00 16.7 21 Este 34 Este 0 -- -- 87
2017-10-28 16:00:00 16.5 19 Este 35 Este 0 -- -- 86
2017-10-28 15:00:00 17.4 19 Este 32 Este 0 -- -- 84
2017-10-28 14:00:00 16.9 19 Este 33 Este 0 -- -- 86
2017-10-28 13:00:00 17.8 18 Este 30 Este 0 -- -- 84
2017-10-28 12:00:00 17.1 16 Este 24 Este 0 -- -- 84
2017-10-28 11:00:00 17.5 11 Este 21 Sudeste 0 -- -- 84
2017-10-28 10:00:00 16.2 14 Sudeste 22 Este 0 -- -- 86
2017-10-28 09:00:00 15.7 13 Este 21 Este 0 -- -- 87
2017-10-28 08:00:00 15.5 13 Este 22 Este 0 -- -- 85
2017-10-28 07:00:00 15.9 15 Este 26 Este 0 -- -- 84
2017-10-28 06:00:00 16.1 15 Este 26 Este 0 -- -- 84
2017-10-28 05:00:00 15.7 16 Este 27 Este 0 -- -- 89
2017-10-28 04:00:00 16.8 16 Este 27 Este 0 -- -- 90
2017-10-28 03:00:00 16.1 17 Este 28 Este 0 -- -- 91
2017-10-28 02:00:00 17.1 13 Este 22 Sudeste 0 -- -- 88
2017-10-28 01:00:00 16.8 11 Este 22 Este 0 -- -- 86
2017-10-28 00:00:00 16.3 12 Este 19 Este 0 -- -- 90
2017-10-27 23:00:00 16.7 12 Sudeste 25 Este 0 -- -- 89
2017-10-27 22:00:00 17 9 Este 21 Este 0 -- -- 85
2017-10-27 21:00:00 16.8 14 Este 22 Este 0 -- -- 86
2017-10-27 20:00:00 16.9 16 Este 27 Este 0 -- -- 89
2017-10-27 19:00:00 17 16 Este 34 Sudeste 0 -- -- 89
2017-10-27 18:00:00 17.3 19 Este 33 Este 0 -- -- 89
2017-10-27 17:00:00 17.5 19 Sudeste 34 Este 0 -- -- 89
2017-10-27 16:00:00 17.8 18 Este 27 Este 0 -- -- 90
2017-10-27 15:00:00 18.5 17 Este 26 Este 0 -- -- 89
2017-10-27 14:00:00 18.6 20 Este 26 Este 0 -- -- 87
2017-10-27 13:00:00 18.7 18 Este 28 Este 0 -- -- 86
2017-10-27 12:00:00 18 17 Este 23 Este 0 -- -- 86
2017-10-27 11:00:00 17.1 17 Este 25 Este 0 -- -- 87
2017-10-27 10:00:00 15.5 20 Sudeste 26 Sudeste 0 -- -- 89
2017-10-27 09:00:00 15.6 16 Sudeste 22 Sudeste 0 -- -- 88
2017-10-27 08:00:00 15.4 17 Sudeste 21 Sudeste 0 -- -- 84
2017-10-27 07:00:00 14.7 12 Sudeste 16 Sudeste 0 -- -- 86
2017-10-27 06:00:00 16.3 6 Sudeste 8 Sudeste 0 -- -- 76
2017-10-27 05:00:00 16.2 5 Sudeste 8 Sudeste 0 -- -- 76
2017-10-27 04:00:00 15.9 0 Calma 19 Sudeste 0 -- -- 76
2017-10-27 03:00:00 16.9 17 Sudeste 27 Sudeste 0 -- -- 76
2017-10-27 02:00:00 16.6 22 Sudeste 27 Sudeste 0 -- -- 82
2017-10-27 01:00:00 15 17 Sudeste 21 Sudeste 0 -- -- 93
2017-10-27 00:00:00 16.7 13 Este 18 Este 0 -- -- 93
2017-10-26 23:00:00 16.5 12 Este 15 Este 0 -- -- 93
2017-10-26 22:00:00 16.7 11 Este 16 Este 0 -- -- 93
2017-10-26 21:00:00 16.9 11 Este 16 Sudeste 0 -- -- 93
2017-10-26 20:00:00 17.2 12 Sudeste 15 Este 0 -- -- 90
2017-10-26 19:00:00 17.6 9 Este 17 Este 0 -- -- 88
2017-10-26 18:00:00 18.2 12 Este 21 Sudeste 0 -- -- 81
2017-10-26 17:00:00 19.2 15 Sudeste 23 Sudeste 0 -- -- 80
2017-10-26 16:00:00 19.4 16 Sudeste 22 Sudeste 0 -- -- 77
2017-10-26 15:00:00 19 12 Este 17 Este 0 -- -- 81
2017-10-26 14:00:00 18.9 9 Este 15 Este 0 -- -- 77
2017-10-26 13:00:00 18.7 9 Este 13 Este 0 -- -- 75
2017-10-26 12:00:00 19.6 6 Este 9 Este 0 -- -- 71
2017-10-26 11:00:00 18.8 3 Sudeste 8 Sudoeste 0 -- -- 72
2017-10-26 10:00:00 16.4 3 Sur 9 Sur 0 -- -- 84
2017-10-26 09:00:00 15.2 9 Oeste 14 Oeste 0 -- -- 89
2017-10-26 08:00:00 15.4 13 Oeste 27 Oeste 0 -- -- 89
2017-10-26 07:00:00 16 20 Oeste 31 Oeste 0 -- -- 86
2017-10-26 06:00:00 15.4 22 Oeste 34 Oeste 0 -- -- 82
2017-10-26 05:00:00 14.9 24 Oeste 30 Oeste 0 -- -- 87
2017-10-26 04:00:00 15 19 Oeste 23 Oeste 0 -- -- 77
2017-10-26 03:00:00 15.7 13 Sudeste 16 Sudeste 0 -- -- 85
2017-10-26 02:00:00 16.2 8 Sudeste 18 Sudeste 0 -- -- 88
2017-10-26 01:00:00 16.1 13 Sudeste 19 Sudeste 0 -- -- 93
2017-10-26 00:00:00 15.8 13 Sudeste 21 Sudeste 0 -- -- 93